Barada, Nebraska
Current Conditions -  °F | °C
As of 6:53 PM on Thursday 27 Nov 2014 (Local Time) from KFNB Reporting Station
Clear Clear  
Wind Chill: 17°   Ceiling: Unl
Heat Index: 27°   Visibility: 10mi
Dew Point: 18°   Wind: 10mph
Humidity: 69%   Direction: 120°ESE
Pressure: 30.3"   Gusts: NA
Location:  40.1276°N, 95.5661°W
Report Text: KFNB 280053Z AUTO 12009KT 10SM CLR M03/M08 A3030 RMK AO2 SLP272 T10281078
Loading
Personal Weather Stations






























Interactive Weather Map New forecast layout! Learn more

10-Day Weather Forecast

Advertisements
Track Severe Weather on mobile